sensor_id;sensor_type;location;lat;lon;timestamp;temperature;humidity
17879;DHT22;9065;51.050;13.758;2023-03-31T00:01:24;13.00;99.90
17879;DHT22;9065;51.050;13.758;2023-03-31T00:03:53;13.00;99.90
17879;DHT22;9065;51.050;13.758;2023-03-31T00:06:26;13.10;99.90
17879;DHT22;9065;51.050;13.758;2023-03-31T00:08:53;13.10;99.90
17879;DHT22;9065;51.050;13.758;2023-03-31T00:11:21;13.10;99.90
17879;DHT22;9065;51.050;13.758;2023-03-31T00:13:47;13.10;99.90
17879;DHT22;9065;51.050;13.758;2023-03-31T00:16:14;13.10;99.90
17879;DHT22;9065;51.050;13.758;2023-03-31T00:18:41;13.10;99.90
17879;DHT22;9065;51.050;13.758;2023-03-31T00:21:14;13.00;99.90
17879;DHT22;9065;51.050;13.758;2023-03-31T00:23:49;13.00;99.90
17879;DHT22;9065;51.050;13.758;2023-03-31T00:26:16;13.00;99.90
17879;DHT22;9065;51.050;13.758;2023-03-31T00:28:42;13.00;99.90
17879;DHT22;9065;51.050;13.758;2023-03-31T00:31:09;12.90;99.90
17879;DHT22;9065;51.050;13.758;2023-03-31T00:33:37;13.00;99.90
17879;DHT22;9065;51.050;13.758;2023-03-31T00:36:04;13.00;99.90
17879;DHT22;9065;51.050;13.758;2023-03-31T00:38:32;13.00;99.90
17879;DHT22;9065;51.050;13.758;2023-03-31T00:41:00;13.10;99.90
17879;DHT22;9065;51.050;13.758;2023-03-31T00:43:29;13.10;99.90
17879;DHT22;9065;51.050;13.758;2023-03-31T00:46:08;13.10;99.90
17879;DHT22;9065;51.050;13.758;2023-03-31T00:48:44;13.20;99.90
17879;DHT22;9065;51.050;13.758;2023-03-31T00:51:12;13.20;99.90
17879;DHT22;9065;51.050;13.758;2023-03-31T00:53:42;13.20;99.90
17879;DHT22;9065;51.050;13.758;2023-03-31T00:56:12;13.20;99.90
17879;DHT22;9065;51.050;13.758;2023-03-31T00:58:40;13.30;99.90
17879;DHT22;9065;51.050;13.758;2023-03-31T01:01:11;13.30;99.90
17879;DHT22;9065;51.050;13.758;2023-03-31T01:03:40;13.30;99.90
17879;DHT22;9065;51.050;13.758;2023-03-31T01:06:12;13.20;99.90
17879;DHT22;9065;51.050;13.758;2023-03-31T01:08:42;13.30;99.90
17879;DHT22;9065;51.050;13.758;2023-03-31T01:11:12;13.30;99.90
17879;DHT22;9065;51.050;13.758;2023-03-31T01:13:41;13.30;99.90
17879;DHT22;9065;51.050;13.758;2023-03-31T01:16:08;13.30;99.90
17879;DHT22;9065;51.050;13.758;2023-03-31T01:18:35;13.30;99.90
17879;DHT22;9065;51.050;13.758;2023-03-31T01:21:41;13.30;99.90
17879;DHT22;9065;51.050;13.758;2023-03-31T01:24:35;13.20;99.90
17879;DHT22;9065;51.050;13.758;2023-03-31T01:27:27;13.10;99.90
17879;DHT22;9065;51.050;13.758;2023-03-31T01:30:27;13.10;99.90
17879;DHT22;9065;51.050;13.758;2023-03-31T01:33:22;13.20;99.90
17879;DHT22;9065;51.050;13.758;2023-03-31T01:36:34;13.10;99.90
17879;DHT22;9065;51.050;13.758;2023-03-31T01:42:02;12.90;99.90
17879;DHT22;9065;51.050;13.758;2023-03-31T01:44:41;12.90;99.90
17879;DHT22;9065;51.050;13.758;2023-03-31T01:47:13;12.80;99.90
17879;DHT22;9065;51.050;13.758;2023-03-31T01:49:46;12.80;99.90
17879;DHT22;9065;51.050;13.758;2023-03-31T01:52:18;12.80;99.90
17879;DHT22;9065;51.050;13.758;2023-03-31T01:54:49;12.80;99.90
17879;DHT22;9065;51.050;13.758;2023-03-31T01:57:22;12.80;99.90
17879;DHT22;9065;51.050;13.758;2023-03-31T01:59:59;12.80;99.90
17879;DHT22;9065;51.050;13.758;2023-03-31T02:02:30;12.70;99.90
17879;DHT22;9065;51.050;13.758;2023-03-31T02:04:59;12.70;99.90
17879;DHT22;9065;51.050;13.758;2023-03-31T02:07:33;12.70;99.90
17879;DHT22;9065;51.050;13.758;2023-03-31T02:10:03;12.70;99.90
17879;DHT22;9065;51.050;13.758;2023-03-31T02:12:35;12.80;99.90
17879;DHT22;9065;51.050;13.758;2023-03-31T02:15:06;12.70;99.90
17879;DHT22;9065;51.050;13.758;2023-03-31T02:17:35;12.80;99.90
17879;DHT22;9065;51.050;13.758;2023-03-31T02:20:09;12.80;99.90
17879;DHT22;9065;51.050;13.758;2023-03-31T02:22:39;12.80;99.90
17879;DHT22;9065;51.050;13.758;2023-03-31T02:25:10;12.70;99.90
17879;DHT22;9065;51.050;13.758;2023-03-31T02:27:41;12.70;99.90
17879;DHT22;9065;51.050;13.758;2023-03-31T02:30:13;12.60;99.90
17879;DHT22;9065;51.050;13.758;2023-03-31T02:32:41;12.70;99.90
17879;DHT22;9065;51.050;13.758;2023-03-31T02:35:13;12.70;99.90
17879;DHT22;9065;51.050;13.758;2023-03-31T02:37:41;12.60;99.90
17879;DHT22;9065;51.050;13.758;2023-03-31T02:40:11;12.60;99.90
17879;DHT22;9065;51.050;13.758;2023-03-31T02:42:42;12.60;99.90
17879;DHT22;9065;51.050;13.758;2023-03-31T02:45:37;12.60;99.90
17879;DHT22;9065;51.050;13.758;2023-03-31T02:48:05;12.50;99.90
17879;DHT22;9065;51.050;13.758;2023-03-31T02:50:42;12.50;99.90
17879;DHT22;9065;51.050;13.758;2023-03-31T02:53:14;12.50;99.90
17879;DHT22;9065;51.050;13.758;2023-03-31T02:55:59;12.50;99.90
17879;DHT22;9065;51.050;13.758;2023-03-31T02:58:43;12.40;99.90
17879;DHT22;9065;51.050;13.758;2023-03-31T03:01:26;12.40;99.90
17879;DHT22;9065;51.050;13.758;2023-03-31T03:04:01;12.40;99.90
17879;DHT22;9065;51.050;13.758;2023-03-31T03:06:39;12.30;99.90
17879;DHT22;9065;51.050;13.758;2023-03-31T03:09:19;12.30;99.90
17879;DHT22;9065;51.050;13.758;2023-03-31T03:11:54;12.30;99.90
17879;DHT22;9065;51.050;13.758;2023-03-31T03:14:30;12.40;99.90
17879;DHT22;9065;51.050;13.758;2023-03-31T03:17:01;12.30;99.90
17879;DHT22;9065;51.050;13.758;2023-03-31T03:19:31;12.30;99.90
17879;DHT22;9065;51.050;13.758;2023-03-31T03:21:58;12.30;99.90
17879;DHT22;9065;51.050;13.758;2023-03-31T03:24:25;12.30;99.90
17879;DHT22;9065;51.050;13.758;2023-03-31T03:26:54;12.30;99.90
17879;DHT22;9065;51.050;13.758;2023-03-31T03:29:21;12.30;99.90
17879;DHT22;9065;51.050;13.758;2023-03-31T03:31:49;12.30;99.90
17879;DHT22;9065;51.050;13.758;2023-03-31T03:34:16;12.30;99.90
17879;DHT22;9065;51.050;13.758;2023-03-31T03:36:45;12.30;99.90
17879;DHT22;9065;51.050;13.758;2023-03-31T03:39:12;12.30;99.90
17879;DHT22;9065;51.050;13.758;2023-03-31T03:41:39;12.40;99.90
17879;DHT22;9065;51.050;13.758;2023-03-31T03:44:06;12.40;99.90
17879;DHT22;9065;51.050;13.758;2023-03-31T03:46:34;12.40;99.90
17879;DHT22;9065;51.050;13.758;2023-03-31T03:49:02;12.40;99.90
17879;DHT22;9065;51.050;13.758;2023-03-31T03:51:29;12.30;99.90
17879;DHT22;9065;51.050;13.758;2023-03-31T03:53:56;12.20;99.90
17879;DHT22;9065;51.050;13.758;2023-03-31T03:56:22;12.20;99.90
17879;DHT22;9065;51.050;13.758;2023-03-31T03:58:49;12.20;99.90
17879;DHT22;9065;51.050;13.758;2023-03-31T04:01:16;12.30;99.90
17879;DHT22;9065;51.050;13.758;2023-03-31T04:03:43;12.30;99.90
17879;DHT22;9065;51.050;13.758;2023-03-31T04:06:11;12.30;99.90
17879;DHT22;9065;51.050;13.758;2023-03-31T04:08:38;12.30;99.90
17879;DHT22;9065;51.050;13.758;2023-03-31T04:11:11;12.40;99.90
17879;DHT22;9065;51.050;13.758;2023-03-31T04:13:39;12.50;99.90
17879;DHT22;9065;51.050;13.758;2023-03-31T04:16:06;12.40;99.90
17879;DHT22;9065;51.050;13.758;2023-03-31T04:18:33;12.20;99.90
17879;DHT22;9065;51.050;13.758;2023-03-31T04:21:02;12.20;99.90
17879;DHT22;9065;51.050;13.758;2023-03-31T04:23:31;12.10;99.90
17879;DHT22;9065;51.050;13.758;2023-03-31T04:25:58;12.00;99.90
17879;DHT22;9065;51.050;13.758;2023-03-31T04:28:25;12.00;99.90
17879;DHT22;9065;51.050;13.758;2023-03-31T04:30:59;12.10;99.90
17879;DHT22;9065;51.050;13.758;2023-03-31T04:33:25;12.20;99.90
17879;DHT22;9065;51.050;13.758;2023-03-31T04:35:52;12.30;99.90
17879;DHT22;9065;51.050;13.758;2023-03-31T04:38:20;12.40;99.90
17879;DHT22;9065;51.050;13.758;2023-03-31T04:40:50;12.40;99.90
17879;DHT22;9065;51.050;13.758;2023-03-31T04:43:19;12.40;99.90
17879;DHT22;9065;51.050;13.758;2023-03-31T04:45:46;12.40;99.90
17879;DHT22;9065;51.050;13.758;2023-03-31T04:48:13;12.30;99.90
17879;DHT22;9065;51.050;13.758;2023-03-31T04:50:40;12.40;99.90
17879;DHT22;9065;51.050;13.758;2023-03-31T04:53:07;12.40;99.90
17879;DHT22;9065;51.050;13.758;2023-03-31T04:55:34;12.40;99.90
17879;DHT22;9065;51.050;13.758;2023-03-31T04:58:02;12.40;99.90
17879;DHT22;9065;51.050;13.758;2023-03-31T05:00:29;12.50;99.90
17879;DHT22;9065;51.050;13.758;2023-03-31T05:02:56;12.60;99.90
17879;DHT22;9065;51.050;13.758;2023-03-31T05:05:22;12.70;99.90
17879;DHT22;9065;51.050;13.758;2023-03-31T05:07:49;12.70;99.90
17879;DHT22;9065;51.050;13.758;2023-03-31T05:10:16;12.60;99.90
17879;DHT22;9065;51.050;13.758;2023-03-31T05:12:43;12.60;99.90
17879;DHT22;9065;51.050;13.758;2023-03-31T05:15:12;12.60;99.90
17879;DHT22;9065;51.050;13.758;2023-03-31T05:17:39;12.60;99.90
17879;DHT22;9065;51.050;13.758;2023-03-31T05:20:07;12.50;99.90
17879;DHT22;9065;51.050;13.758;2023-03-31T05:22:35;12.60;99.90
17879;DHT22;9065;51.050;13.758;2023-03-31T05:25:04;12.70;99.90
17879;DHT22;9065;51.050;13.758;2023-03-31T05:27:32;12.60;99.90
17879;DHT22;9065;51.050;13.758;2023-03-31T05:30:02;12.60;99.90
17879;DHT22;9065;51.050;13.758;2023-03-31T05:32:36;12.60;99.90
17879;DHT22;9065;51.050;13.758;2023-03-31T05:35:05;12.70;99.90
17879;DHT22;9065;51.050;13.758;2023-03-31T05:37:33;12.70;99.90
17879;DHT22;9065;51.050;13.758;2023-03-31T05:40:01;12.80;99.90
17879;DHT22;9065;51.050;13.758;2023-03-31T05:42:30;12.90;99.90
17879;DHT22;9065;51.050;13.758;2023-03-31T05:45:09;12.90;99.90
17879;DHT22;9065;51.050;13.758;2023-03-31T05:47:38;12.90;99.90
17879;DHT22;9065;51.050;13.758;2023-03-31T05:50:06;13.00;99.90
17879;DHT22;9065;51.050;13.758;2023-03-31T05:52:35;13.00;99.90
17879;DHT22;9065;51.050;13.758;2023-03-31T05:55:02;13.20;99.90
17879;DHT22;9065;51.050;13.758;2023-03-31T05:57:29;13.30;99.90
17879;DHT22;9065;51.050;13.758;2023-03-31T05:59:57;13.30;99.90
17879;DHT22;9065;51.050;13.758;2023-03-31T06:02:25;13.40;99.90
17879;DHT22;9065;51.050;13.758;2023-03-31T06:04:54;13.50;99.90
17879;DHT22;9065;51.050;13.758;2023-03-31T06:07:23;13.60;99.90
17879;DHT22;9065;51.050;13.758;2023-03-31T06:09:51;13.60;99.90
17879;DHT22;9065;51.050;13.758;2023-03-31T06:12:18;13.60;99.90
17879;DHT22;9065;51.050;13.758;2023-03-31T06:14:46;13.70;99.90
17879;DHT22;9065;51.050;13.758;2023-03-31T06:17:14;13.80;99.90
17879;DHT22;9065;51.050;13.758;2023-03-31T06:19:40;13.90;99.90
17879;DHT22;9065;51.050;13.758;2023-03-31T06:22:09;14.00;99.90
17879;DHT22;9065;51.050;13.758;2023-03-31T06:24:36;13.90;99.90
17879;DHT22;9065;51.050;13.758;2023-03-31T06:27:03;14.00;99.90
17879;DHT22;9065;51.050;13.758;2023-03-31T06:29:31;14.10;99.90
17879;DHT22;9065;51.050;13.758;2023-03-31T06:31:59;14.20;99.90
17879;DHT22;9065;51.050;13.758;2023-03-31T06:34:49;14.30;99.90
17879;DHT22;9065;51.050;13.758;2023-03-31T06:37:35;14.30;99.90
17879;DHT22;9065;51.050;13.758;2023-03-31T06:40:02;14.50;99.90
17879;DHT22;9065;51.050;13.758;2023-03-31T06:42:34;14.70;99.90
17879;DHT22;9065;51.050;13.758;2023-03-31T06:45:04;15.00;99.90
17879;DHT22;9065;51.050;13.758;2023-03-31T06:47:31;15.10;99.90
17879;DHT22;9065;51.050;13.758;2023-03-31T06:49:58;15.20;99.90
17879;DHT22;9065;51.050;13.758;2023-03-31T06:52:29;15.60;99.90
17879;DHT22;9065;51.050;13.758;2023-03-31T06:54:58;16.10;99.90
17879;DHT22;9065;51.050;13.758;2023-03-31T06:57:32;16.60;99.90
17879;DHT22;9065;51.050;13.758;2023-03-31T07:00:00;16.90;99.90
17879;DHT22;9065;51.050;13.758;2023-03-31T07:02:36;17.00;99.90
17879;DHT22;9065;51.050;13.758;2023-03-31T07:05:06;17.50;99.90
17879;DHT22;9065;51.050;13.758;2023-03-31T07:07:33;17.80;99.90
17879;DHT22;9065;51.050;13.758;2023-03-31T07:10:02;18.10;99.90
17879;DHT22;9065;51.050;13.758;2023-03-31T07:12:31;18.20;99.90
17879;DHT22;9065;51.050;13.758;2023-03-31T07:14:59;18.10;99.90
17879;DHT22;9065;51.050;13.758;2023-03-31T07:17:29;17.90;99.90
17879;DHT22;9065;51.050;13.758;2023-03-31T07:19:58;17.60;99.90
17879;DHT22;9065;51.050;13.758;2023-03-31T07:22:29;17.40;99.90
17879;DHT22;9065;51.050;13.758;2023-03-31T07:25:30;17.30;99.90
17879;DHT22;9065;51.050;13.758;2023-03-31T07:28:17;17.10;99.90
17879;DHT22;9065;51.050;13.758;2023-03-31T07:31:12;16.80;99.90
17879;DHT22;9065;51.050;13.758;2023-03-31T07:33:50;16.70;99.90
17879;DHT22;9065;51.050;13.758;2023-03-31T07:36:22;16.60;99.90
17879;DHT22;9065;51.050;13.758;2023-03-31T07:38:58;16.70;99.90
17879;DHT22;9065;51.050;13.758;2023-03-31T07:41:31;16.80;99.90
17879;DHT22;9065;51.050;13.758;2023-03-31T07:44:35;17.20;99.90
17879;DHT22;9065;51.050;13.758;2023-03-31T07:47:05;17.80;99.90
17879;DHT22;9065;51.050;13.758;2023-03-31T07:49:36;18.70;99.90
17879;DHT22;9065;51.050;13.758;2023-03-31T07:52:17;19.60;99.90
17879;DHT22;9065;51.050;13.758;2023-03-31T07:54:46;20.50;99.90
17879;DHT22;9065;51.050;13.758;2023-03-31T08:00:14;21.10;99.90
17879;DHT22;9065;51.050;13.758;2023-03-31T08:02:42;20.80;99.90
17879;DHT22;9065;51.050;13.758;2023-03-31T08:05:30;20.50;99.90
17879;DHT22;9065;51.050;13.758;2023-03-31T08:08:04;19.90;99.90
17879;DHT22;9065;51.050;13.758;2023-03-31T08:10:34;19.50;99.90
17879;DHT22;9065;51.050;13.758;2023-03-31T08:13:03;19.10;99.90
17879;DHT22;9065;51.050;13.758;2023-03-31T08:15:34;19.00;99.90
17879;DHT22;9065;51.050;13.758;2023-03-31T08:18:09;18.70;99.90
17879;DHT22;9065;51.050;13.758;2023-03-31T08:20:52;18.60;99.90
17879;DHT22;9065;51.050;13.758;2023-03-31T08:23:21;18.30;99.90
17879;DHT22;9065;51.050;13.758;2023-03-31T08:26:13;18.20;99.90
17879;DHT22;9065;51.050;13.758;2023-03-31T08:28:47;18.10;99.90
17879;DHT22;9065;51.050;13.758;2023-03-31T08:31:20;17.70;99.90
17879;DHT22;9065;51.050;13.758;2023-03-31T08:34:07;17.70;99.90
17879;DHT22;9065;51.050;13.758;2023-03-31T08:36:42;17.40;99.90
17879;DHT22;9065;51.050;13.758;2023-03-31T08:39:25;17.40;99.90
17879;DHT22;9065;51.050;13.758;2023-03-31T08:41:59;17.30;99.90
17879;DHT22;9065;51.050;13.758;2023-03-31T08:44:31;17.30;99.90
17879;DHT22;9065;51.050;13.758;2023-03-31T08:47:09;17.20;99.90
17879;DHT22;9065;51.050;13.758;2023-03-31T08:49:45;17.00;99.90
17879;DHT22;9065;51.050;13.758;2023-03-31T08:52:19;16.90;99.90
17879;DHT22;9065;51.050;13.758;2023-03-31T08:54:55;16.80;99.90
17879;DHT22;9065;51.050;13.758;2023-03-31T08:57:26;16.60;99.90
17879;DHT22;9065;51.050;13.758;2023-03-31T09:00:00;16.50;99.90
17879;DHT22;9065;51.050;13.758;2023-03-31T09:02:42;16.50;99.90
17879;DHT22;9065;51.050;13.758;2023-03-31T09:08:22;16.20;99.90
17879;DHT22;9065;51.050;13.758;2023-03-31T09:11:08;16.20;99.90
17879;DHT22;9065;51.050;13.758;2023-03-31T09:14:26;16.20;99.90
17879;DHT22;9065;51.050;13.758;2023-03-31T09:17:09;16.10;99.90
17879;DHT22;9065;51.050;13.758;2023-03-31T09:26:38;16.00;99.90
17879;DHT22;9065;51.050;13.758;2023-03-31T09:29:31;16.00;99.90
17879;DHT22;9065;51.050;13.758;2023-03-31T09:32:12;16.00;99.90
17879;DHT22;9065;51.050;13.758;2023-03-31T09:34:40;16.00;99.90
17879;DHT22;9065;51.050;13.758;2023-03-31T09:37:10;16.00;99.90
17879;DHT22;9065;51.050;13.758;2023-03-31T09:39:37;16.00;99.90
17879;DHT22;9065;51.050;13.758;2023-03-31T09:42:09;16.00;99.90
17879;DHT22;9065;51.050;13.758;2023-03-31T09:44:39;16.00;99.90
17879;DHT22;9065;51.050;13.758;2023-03-31T09:47:15;16.10;99.90
17879;DHT22;9065;51.050;13.758;2023-03-31T09:49:45;16.00;99.90
17879;DHT22;9065;51.050;13.758;2023-03-31T09:52:24;16.20;99.90
17879;DHT22;9065;51.050;13.758;2023-03-31T09:54:55;16.20;99.90
17879;DHT22;9065;51.050;13.758;2023-03-31T09:57:29;16.30;99.90
17879;DHT22;9065;51.050;13.758;2023-03-31T10:00:03;16.30;99.90
17879;DHT22;9065;51.050;13.758;2023-03-31T10:02:44;16.30;99.90
17879;DHT22;9065;51.050;13.758;2023-03-31T10:05:27;16.20;99.90
17879;DHT22;9065;51.050;13.758;2023-03-31T10:08:19;16.20;99.90
17879;DHT22;9065;51.050;13.758;2023-03-31T10:10:48;16.10;99.90
17879;DHT22;9065;51.050;13.758;2023-03-31T10:13:19;15.90;99.90
17879;DHT22;9065;51.050;13.758;2023-03-31T10:15:52;15.80;99.90
17879;DHT22;9065;51.050;13.758;2023-03-31T10:18:32;15.70;99.90
17879;DHT22;9065;51.050;13.758;2023-03-31T10:21:04;15.60;99.90
17879;DHT22;9065;51.050;13.758;2023-03-31T10:23:34;15.50;99.90
17879;DHT22;9065;51.050;13.758;2023-03-31T10:26:05;15.60;99.90
17879;DHT22;9065;51.050;13.758;2023-03-31T10:28:36;15.50;99.90
17879;DHT22;9065;51.050;13.758;2023-03-31T10:31:07;15.50;99.90
17879;DHT22;9065;51.050;13.758;2023-03-31T10:33:40;15.40;99.90
17879;DHT22;9065;51.050;13.758;2023-03-31T10:36:17;15.30;99.90
17879;DHT22;9065;51.050;13.758;2023-03-31T10:38:49;15.20;99.90
17879;DHT22;9065;51.050;13.758;2023-03-31T10:41:19;15.20;99.90
17879;DHT22;9065;51.050;13.758;2023-03-31T10:43:51;15.30;99.90
17879;DHT22;9065;51.050;13.758;2023-03-31T10:46:38;15.40;99.90
17879;DHT22;9065;51.050;13.758;2023-03-31T10:49:14;15.40;99.90
17879;DHT22;9065;51.050;13.758;2023-03-31T10:51:48;15.50;99.90
17879;DHT22;9065;51.050;13.758;2023-03-31T10:54:17;15.50;99.90
17879;DHT22;9065;51.050;13.758;2023-03-31T10:56:51;15.60;99.90
17879;DHT22;9065;51.050;13.758;2023-03-31T10:59:49;15.60;99.90
17879;DHT22;9065;51.050;13.758;2023-03-31T11:02:41;15.60;99.90
17879;DHT22;9065;51.050;13.758;2023-03-31T11:05:21;15.60;99.90
17879;DHT22;9065;51.050;13.758;2023-03-31T11:08:20;15.70;99.90
17879;DHT22;9065;51.050;13.758;2023-03-31T11:11:04;15.60;99.90
17879;DHT22;9065;51.050;13.758;2023-03-31T11:13:44;15.60;99.90
17879;DHT22;9065;51.050;13.758;2023-03-31T11:16:29;15.60;99.90
17879;DHT22;9065;51.050;13.758;2023-03-31T11:19:19;15.70;99.90
17879;DHT22;9065;51.050;13.758;2023-03-31T11:22:00;15.70;99.90
17879;DHT22;9065;51.050;13.758;2023-03-31T11:24:43;15.50;99.90
17879;DHT22;9065;51.050;13.758;2023-03-31T11:27:32;15.50;99.90
17879;DHT22;9065;51.050;13.758;2023-03-31T11:30:11;15.60;99.90
17879;DHT22;9065;51.050;13.758;2023-03-31T11:32:54;15.60;99.90
17879;DHT22;9065;51.050;13.758;2023-03-31T11:41:34;15.50;99.90
17879;DHT22;9065;51.050;13.758;2023-03-31T11:44:29;15.30;99.90
17879;DHT22;9065;51.050;13.758;2023-03-31T11:47:13;15.20;99.90
17879;DHT22;9065;51.050;13.758;2023-03-31T11:49:46;15.30;99.90
17879;DHT22;9065;51.050;13.758;2023-03-31T11:52:18;15.30;99.90
17879;DHT22;9065;51.050;13.758;2023-03-31T11:54:53;15.20;99.90
17879;DHT22;9065;51.050;13.758;2023-03-31T11:57:26;15.20;99.90
17879;DHT22;9065;51.050;13.758;2023-03-31T12:00:02;15.10;99.90
17879;DHT22;9065;51.050;13.758;2023-03-31T12:02:39;15.00;99.90
17879;DHT22;9065;51.050;13.758;2023-03-31T12:05:11;14.90;99.90
17879;DHT22;9065;51.050;13.758;2023-03-31T12:07:43;14.70;99.90
17879;DHT22;9065;51.050;13.758;2023-03-31T12:10:17;14.60;99.90
17879;DHT22;9065;51.050;13.758;2023-03-31T12:12:50;14.50;99.90
17879;DHT22;9065;51.050;13.758;2023-03-31T12:15:23;14.50;99.90
17879;DHT22;9065;51.050;13.758;2023-03-31T12:17:56;14.40;99.90
17879;DHT22;9065;51.050;13.758;2023-03-31T12:20:31;14.40;99.90
17879;DHT22;9065;51.050;13.758;2023-03-31T12:23:01;14.50;99.90
17879;DHT22;9065;51.050;13.758;2023-03-31T12:25:39;14.50;99.90
17879;DHT22;9065;51.050;13.758;2023-03-31T12:28:08;14.60;99.90
17879;DHT22;9065;51.050;13.758;2023-03-31T12:30:40;14.60;99.90
17879;DHT22;9065;51.050;13.758;2023-03-31T12:33:15;14.70;99.90
17879;DHT22;9065;51.050;13.758;2023-03-31T12:36:04;14.60;99.90
17879;DHT22;9065;51.050;13.758;2023-03-31T12:38:41;14.70;99.90
17879;DHT22;9065;51.050;13.758;2023-03-31T12:41:18;14.70;99.90
17879;DHT22;9065;51.050;13.758;2023-03-31T12:44:15;14.70;99.90
17879;DHT22;9065;51.050;13.758;2023-03-31T12:50:07;14.70;99.90
17879;DHT22;9065;51.050;13.758;2023-03-31T12:52:44;14.50;99.90
17879;DHT22;9065;51.050;13.758;2023-03-31T12:55:36;14.40;99.90
17879;DHT22;9065;51.050;13.758;2023-03-31T12:58:36;14.40;99.90
17879;DHT22;9065;51.050;13.758;2023-03-31T13:01:07;14.30;99.90
17879;DHT22;9065;51.050;13.758;2023-03-31T13:03:39;14.20;99.90
17879;DHT22;9065;51.050;13.758;2023-03-31T13:06:09;14.10;99.90
17879;DHT22;9065;51.050;13.758;2023-03-31T13:08:52;13.90;99.90
17879;DHT22;9065;51.050;13.758;2023-03-31T13:11:21;13.80;99.90
17879;DHT22;9065;51.050;13.758;2023-03-31T13:13:58;13.70;99.90
17879;DHT22;9065;51.050;13.758;2023-03-31T13:16:30;13.60;99.90
17879;DHT22;9065;51.050;13.758;2023-03-31T13:19:00;13.70;99.90
17879;DHT22;9065;51.050;13.758;2023-03-31T13:21:31;13.70;99.90
17879;DHT22;9065;51.050;13.758;2023-03-31T13:24:20;13.70;99.90
17879;DHT22;9065;51.050;13.758;2023-03-31T13:26:48;13.60;99.90
17879;DHT22;9065;51.050;13.758;2023-03-31T13:29:22;13.60;99.90
17879;DHT22;9065;51.050;13.758;2023-03-31T13:32:18;13.70;99.90
17879;DHT22;9065;51.050;13.758;2023-03-31T13:34:58;13.60;99.90
17879;DHT22;9065;51.050;13.758;2023-03-31T13:40:29;13.70;99.90
17879;DHT22;9065;51.050;13.758;2023-03-31T13:46:00;14.10;99.90
17879;DHT22;9065;51.050;13.758;2023-03-31T13:48:46;14.40;99.90
17879;DHT22;9065;51.050;13.758;2023-03-31T13:51:42;14.70;99.90
17879;DHT22;9065;51.050;13.758;2023-03-31T13:54:35;14.80;99.90
17879;DHT22;9065;51.050;13.758;2023-03-31T13:57:23;14.90;99.90
17879;DHT22;9065;51.050;13.758;2023-03-31T14:00:17;14.90;99.90
17879;DHT22;9065;51.050;13.758;2023-03-31T14:03:04;14.90;99.90
17879;DHT22;9065;51.050;13.758;2023-03-31T14:05:33;14.70;99.90
17879;DHT22;9065;51.050;13.758;2023-03-31T14:08:06;14.70;99.90
17879;DHT22;9065;51.050;13.758;2023-03-31T14:10:38;14.50;99.90
17879;DHT22;9065;51.050;13.758;2023-03-31T14:13:10;14.30;99.90
17879;DHT22;9065;51.050;13.758;2023-03-31T14:15:40;14.20;99.90
17879;DHT22;9065;51.050;13.758;2023-03-31T14:18:11;14.20;99.90
17879;DHT22;9065;51.050;13.758;2023-03-31T14:20:56;14.20;99.90
17879;DHT22;9065;51.050;13.758;2023-03-31T14:23:42;14.30;99.90
17879;DHT22;9065;51.050;13.758;2023-03-31T14:26:18;14.40;99.90
17879;DHT22;9065;51.050;13.758;2023-03-31T14:29:06;14.40;99.90
17879;DHT22;9065;51.050;13.758;2023-03-31T14:31:40;14.60;99.90
17879;DHT22;9065;51.050;13.758;2023-03-31T14:34:25;14.80;99.90
17879;DHT22;9065;51.050;13.758;2023-03-31T14:36:59;14.90;99.90
17879;DHT22;9065;51.050;13.758;2023-03-31T14:39:30;14.90;99.90
17879;DHT22;9065;51.050;13.758;2023-03-31T14:42:01;15.00;99.90
17879;DHT22;9065;51.050;13.758;2023-03-31T14:44:29;15.00;99.90
17879;DHT22;9065;51.050;13.758;2023-03-31T14:46:56;14.90;99.90
17879;DHT22;9065;51.050;13.758;2023-03-31T14:49:25;14.80;99.90
17879;DHT22;9065;51.050;13.758;2023-03-31T14:51:54;14.70;99.90
17879;DHT22;9065;51.050;13.758;2023-03-31T14:54:24;14.80;99.90
17879;DHT22;9065;51.050;13.758;2023-03-31T14:56:54;14.90;99.90
17879;DHT22;9065;51.050;13.758;2023-03-31T14:59:26;15.00;99.90
17879;DHT22;9065;51.050;13.758;2023-03-31T15:01:57;15.10;99.90
17879;DHT22;9065;51.050;13.758;2023-03-31T15:04:25;15.20;99.90
17879;DHT22;9065;51.050;13.758;2023-03-31T15:06:54;15.10;99.90
17879;DHT22;9065;51.050;13.758;2023-03-31T15:09:24;15.00;99.90
17879;DHT22;9065;51.050;13.758;2023-03-31T15:11:57;14.90;99.90
17879;DHT22;9065;51.050;13.758;2023-03-31T15:14:28;14.80;99.90
17879;DHT22;9065;51.050;13.758;2023-03-31T15:16:56;14.80;99.90
17879;DHT22;9065;51.050;13.758;2023-03-31T15:19:25;14.70;99.90
17879;DHT22;9065;51.050;13.758;2023-03-31T15:21:55;14.70;99.90
17879;DHT22;9065;51.050;13.758;2023-03-31T15:24:22;14.70;99.90
17879;DHT22;9065;51.050;13.758;2023-03-31T15:26:53;14.70;99.90
17879;DHT22;9065;51.050;13.758;2023-03-31T15:29:25;14.80;99.90
17879;DHT22;9065;51.050;13.758;2023-03-31T15:31:55;14.80;99.90
17879;DHT22;9065;51.050;13.758;2023-03-31T15:34:26;14.90;99.90
17879;DHT22;9065;51.050;13.758;2023-03-31T15:36:56;15.00;99.90
17879;DHT22;9065;51.050;13.758;2023-03-31T15:39:26;14.90;99.90
17879;DHT22;9065;51.050;13.758;2023-03-31T15:41:54;15.10;99.90
17879;DHT22;9065;51.050;13.758;2023-03-31T15:44:36;15.10;99.90
17879;DHT22;9065;51.050;13.758;2023-03-31T15:47:12;15.00;99.90
17879;DHT22;9065;51.050;13.758;2023-03-31T15:49:52;15.00;99.90
17879;DHT22;9065;51.050;13.758;2023-03-31T15:52:31;15.10;99.90
17879;DHT22;9065;51.050;13.758;2023-03-31T15:55:00;15.20;99.90
17879;DHT22;9065;51.050;13.758;2023-03-31T15:57:33;15.20;99.90
17879;DHT22;9065;51.050;13.758;2023-03-31T16:00:02;15.40;99.90
17879;DHT22;9065;51.050;13.758;2023-03-31T16:02:39;15.40;99.90
17879;DHT22;9065;51.050;13.758;2023-03-31T16:05:22;15.50;99.90
17879;DHT22;9065;51.050;13.758;2023-03-31T16:07:57;15.60;99.90
17879;DHT22;9065;51.050;13.758;2023-03-31T16:10:25;15.50;99.90
17879;DHT22;9065;51.050;13.758;2023-03-31T16:12:54;15.60;99.90
17879;DHT22;9065;51.050;13.758;2023-03-31T16:15:29;15.60;99.90
17879;DHT22;9065;51.050;13.758;2023-03-31T16:17:58;15.60;99.90
17879;DHT22;9065;51.050;13.758;2023-03-31T16:20:29;15.50;99.90
17879;DHT22;9065;51.050;13.758;2023-03-31T16:22:59;15.30;99.90
17879;DHT22;9065;51.050;13.758;2023-03-31T16:25:33;15.20;99.90
17879;DHT22;9065;51.050;13.758;2023-03-31T16:28:15;15.20;99.90
17879;DHT22;9065;51.050;13.758;2023-03-31T16:30:51;15.30;99.90
17879;DHT22;9065;51.050;13.758;2023-03-31T16:33:30;15.20;99.90
17879;DHT22;9065;51.050;13.758;2023-03-31T16:36:29;15.20;99.90
17879;DHT22;9065;51.050;13.758;2023-03-31T16:39:03;14.90;99.90
17879;DHT22;9065;51.050;13.758;2023-03-31T16:41:31;14.70;99.90
17879;DHT22;9065;51.050;13.758;2023-03-31T16:44:01;14.60;99.90